sensor_id;sensor_type;location;lat;lon;timestamp;P1;durP1;ratioP1;P2;durP2;ratioP2
16906;SDS011;8570;52.380;4.654;2023-08-06T00:04:54;9.07;;;7.72;;
16906;SDS011;8570;52.380;4.654;2023-08-06T00:09:56;9.38;;;7.50;;
16906;SDS011;8570;52.380;4.654;2023-08-06T00:14:59;8.73;;;7.82;;
16906;SDS011;8570;52.380;4.654;2023-08-06T00:20:02;8.85;;;7.93;;
16906;SDS011;8570;52.380;4.654;2023-08-06T00:25:09;8.00;;;6.88;;
16906;SDS011;8570;52.380;4.654;2023-08-06T00:30:12;6.97;;;6.28;;
16906;SDS011;8570;52.380;4.654;2023-08-06T00:35:14;6.85;;;6.18;;
16906;SDS011;8570;52.380;4.654;2023-08-06T00:40:16;8.88;;;6.95;;
16906;SDS011;8570;52.380;4.654;2023-08-06T00:45:26;9.50;;;6.57;;
16906;SDS011;8570;52.380;4.654;2023-08-06T00:50:30;9.18;;;6.90;;
16906;SDS011;8570;52.380;4.654;2023-08-06T00:55:32;7.78;;;6.97;;
16906;SDS011;8570;52.380;4.654;2023-08-06T01:00:36;8.05;;;6.70;;
16906;SDS011;8570;52.380;4.654;2023-08-06T01:05:38;7.82;;;6.90;;
16906;SDS011;8570;52.380;4.654;2023-08-06T01:10:44;13.70;;;7.15;;
16906;SDS011;8570;52.380;4.654;2023-08-06T01:15:54;7.72;;;6.30;;
16906;SDS011;8570;52.380;4.654;2023-08-06T01:20:59;7.43;;;6.72;;
16906;SDS011;8570;52.380;4.654;2023-08-06T01:26:03;8.75;;;6.80;;
16906;SDS011;8570;52.380;4.654;2023-08-06T01:31:18;9.43;;;7.35;;
16906;SDS011;8570;52.380;4.654;2023-08-06T01:36:24;8.63;;;7.72;;
16906;SDS011;8570;52.380;4.654;2023-08-06T01:41:27;13.27;;;8.43;;
16906;SDS011;8570;52.380;4.654;2023-08-06T01:46:29;9.40;;;8.23;;
16906;SDS011;8570;52.380;4.654;2023-08-06T01:51:33;11.48;;;7.80;;
16906;SDS011;8570;52.380;4.654;2023-08-06T01:56:35;11.05;;;8.68;;
16906;SDS011;8570;52.380;4.654;2023-08-06T02:01:36;11.30;;;8.20;;
16906;SDS011;8570;52.380;4.654;2023-08-06T02:06:40;11.13;;;9.63;;
16906;SDS011;8570;52.380;4.654;2023-08-06T02:11:42;10.32;;;9.32;;
16906;SDS011;8570;52.380;4.654;2023-08-06T02:16:44;11.35;;;10.23;;
16906;SDS011;8570;52.380;4.654;2023-08-06T02:21:51;12.90;;;10.55;;
16906;SDS011;8570;52.380;4.654;2023-08-06T02:26:54;19.33;;;10.88;;
16906;SDS011;8570;52.380;4.654;2023-08-06T02:31:56;11.68;;;10.07;;
16906;SDS011;8570;52.380;4.654;2023-08-06T02:37:00;11.32;;;9.60;;
16906;SDS011;8570;52.380;4.654;2023-08-06T02:42:02;9.60;;;8.60;;
16906;SDS011;8570;52.380;4.654;2023-08-06T02:47:05;10.40;;;9.35;;
16906;SDS011;8570;52.380;4.654;2023-08-06T02:52:08;10.95;;;9.85;;
16906;SDS011;8570;52.380;4.654;2023-08-06T02:57:10;10.32;;;6.95;;
16906;SDS011;8570;52.380;4.654;2023-08-06T03:02:12;6.90;;;5.30;;
16906;SDS011;8570;52.380;4.654;2023-08-06T03:07:15;7.15;;;3.22;;
16906;SDS011;8570;52.380;4.654;2023-08-06T03:12:17;4.93;;;2.58;;
16906;SDS011;8570;52.380;4.654;2023-08-06T03:17:19;4.00;;;2.70;;
16906;SDS011;8570;52.380;4.654;2023-08-06T03:22:23;4.00;;;2.80;;
16906;SDS011;8570;52.380;4.654;2023-08-06T03:27:24;4.85;;;2.60;;
16906;SDS011;8570;52.380;4.654;2023-08-06T03:32:26;4.18;;;2.67;;
16906;SDS011;8570;52.380;4.654;2023-08-06T03:37:30;5.43;;;3.00;;
16906;SDS011;8570;52.380;4.654;2023-08-06T03:42:32;7.10;;;2.80;;
16906;SDS011;8570;52.380;4.654;2023-08-06T03:47:34;6.20;;;3.13;;
16906;SDS011;8570;52.380;4.654;2023-08-06T03:52:37;6.75;;;2.80;;
16906;SDS011;8570;52.380;4.654;2023-08-06T03:57:39;5.25;;;3.15;;
16906;SDS011;8570;52.380;4.654;2023-08-06T04:02:41;4.20;;;2.72;;
16906;SDS011;8570;52.380;4.654;2023-08-06T04:07:47;5.45;;;2.20;;
16906;SDS011;8570;52.380;4.654;2023-08-06T04:12:48;4.35;;;1.65;;
16906;SDS011;8570;52.380;4.654;2023-08-06T04:17:50;5.30;;;1.92;;
16906;SDS011;8570;52.380;4.654;2023-08-06T04:22:54;5.50;;;1.80;;
16906;SDS011;8570;52.380;4.654;2023-08-06T04:27:56;3.50;;;2.38;;
16906;SDS011;8570;52.380;4.654;2023-08-06T04:32:58;8.02;;;2.30;;
16906;SDS011;8570;52.380;4.654;2023-08-06T04:38:01;5.40;;;2.25;;
16906;SDS011;8570;52.380;4.654;2023-08-06T04:43:03;2.53;;;1.88;;
16906;SDS011;8570;52.380;4.654;2023-08-06T04:48:05;2.28;;;1.92;;
16906;SDS011;8570;52.380;4.654;2023-08-06T04:53:08;4.82;;;2.00;;
16906;SDS011;8570;52.380;4.654;2023-08-06T04:58:11;5.00;;;2.42;;
16906;SDS011;8570;52.380;4.654;2023-08-06T05:03:13;3.28;;;2.53;;
16906;SDS011;8570;52.380;4.654;2023-08-06T05:08:16;2.95;;;2.70;;
16906;SDS011;8570;52.380;4.654;2023-08-06T05:13:18;3.40;;;2.65;;
16906;SDS011;8570;52.380;4.654;2023-08-06T05:18:20;4.28;;;3.40;;
16906;SDS011;8570;52.380;4.654;2023-08-06T05:23:23;4.93;;;3.60;;
16906;SDS011;8570;52.380;4.654;2023-08-06T05:28:25;6.60;;;4.25;;
16906;SDS011;8570;52.380;4.654;2023-08-06T05:33:27;5.63;;;3.65;;
16906;SDS011;8570;52.380;4.654;2023-08-06T05:38:30;5.63;;;3.83;;
16906;SDS011;8570;52.380;4.654;2023-08-06T05:43:32;8.20;;;4.45;;
16906;SDS011;8570;52.380;4.654;2023-08-06T05:48:34;11.25;;;4.38;;
16906;SDS011;8570;52.380;4.654;2023-08-06T05:53:37;5.97;;;3.88;;
16906;SDS011;8570;52.380;4.654;2023-08-06T05:58:39;8.45;;;3.83;;
16906;SDS011;8570;52.380;4.654;2023-08-06T06:03:41;9.70;;;4.10;;
16906;SDS011;8570;52.380;4.654;2023-08-06T06:08:45;5.82;;;3.75;;
16906;SDS011;8570;52.380;4.654;2023-08-06T06:13:47;6.15;;;3.72;;
16906;SDS011;8570;52.380;4.654;2023-08-06T06:18:49;5.95;;;4.43;;
16906;SDS011;8570;52.380;4.654;2023-08-06T06:23:53;8.80;;;3.90;;
16906;SDS011;8570;52.380;4.654;2023-08-06T06:28:55;4.55;;;4.10;;
16906;SDS011;8570;52.380;4.654;2023-08-06T06:33:56;5.55;;;4.15;;
16906;SDS011;8570;52.380;4.654;2023-08-06T06:39:00;6.82;;;4.50;;
16906;SDS011;8570;52.380;4.654;2023-08-06T06:44:02;6.40;;;4.18;;
16906;SDS011;8570;52.380;4.654;2023-08-06T06:49:04;6.15;;;4.78;;
16906;SDS011;8570;52.380;4.654;2023-08-06T06:54:08;6.93;;;4.43;;
16906;SDS011;8570;52.380;4.654;2023-08-06T06:59:09;5.75;;;3.72;;
16906;SDS011;8570;52.380;4.654;2023-08-06T07:04:11;7.32;;;3.38;;
16906;SDS011;8570;52.380;4.654;2023-08-06T07:09:15;7.30;;;3.22;;
16906;SDS011;8570;52.380;4.654;2023-08-06T07:14:16;7.32;;;3.45;;
16906;SDS011;8570;52.380;4.654;2023-08-06T07:19:18;6.85;;;3.28;;
16906;SDS011;8570;52.380;4.654;2023-08-06T07:24:22;8.27;;;3.10;;
16906;SDS011;8570;52.380;4.654;2023-08-06T07:29:24;6.55;;;3.10;;
16906;SDS011;8570;52.380;4.654;2023-08-06T07:34:25;6.93;;;3.33;;
16906;SDS011;8570;52.380;4.654;2023-08-06T07:39:29;8.23;;;3.17;;
16906;SDS011;8570;52.380;4.654;2023-08-06T07:44:31;8.40;;;3.28;;
16906;SDS011;8570;52.380;4.654;2023-08-06T07:49:33;6.35;;;2.88;;
16906;SDS011;8570;52.380;4.654;2023-08-06T07:54:36;7.15;;;2.60;;
16906;SDS011;8570;52.380;4.654;2023-08-06T07:59:38;5.25;;;2.60;;
16906;SDS011;8570;52.380;4.654;2023-08-06T08:04:40;4.03;;;2.08;;
16906;SDS011;8570;52.380;4.654;2023-08-06T08:09:43;5.53;;;2.10;;
16906;SDS011;8570;52.380;4.654;2023-08-06T08:14:45;6.18;;;2.15;;
16906;SDS011;8570;52.380;4.654;2023-08-06T08:19:47;5.20;;;1.92;;
16906;SDS011;8570;52.380;4.654;2023-08-06T08:24:50;5.32;;;2.00;;
16906;SDS011;8570;52.380;4.654;2023-08-06T08:29:52;4.60;;;1.52;;
16906;SDS011;8570;52.380;4.654;2023-08-06T08:34:54;3.95;;;1.08;;
16906;SDS011;8570;52.380;4.654;2023-08-06T08:39:58;3.00;;;1.30;;
16906;SDS011;8570;52.380;4.654;2023-08-06T08:45:00;2.10;;;1.23;;
16906;SDS011;8570;52.380;4.654;2023-08-06T08:50:04;4.38;;;1.10;;
16906;SDS011;8570;52.380;4.654;2023-08-06T08:55:09;2.88;;;1.05;;
16906;SDS011;8570;52.380;4.654;2023-08-06T09:00:11;2.35;;;1.10;;
16906;SDS011;8570;52.380;4.654;2023-08-06T09:05:14;3.90;;;1.40;;
16906;SDS011;8570;52.380;4.654;2023-08-06T09:10:20;2.50;;;1.73;;
16906;SDS011;8570;52.380;4.654;2023-08-06T09:15:25;2.58;;;1.27;;
16906;SDS011;8570;52.380;4.654;2023-08-06T09:20:28;2.92;;;1.30;;
16906;SDS011;8570;52.380;4.654;2023-08-06T09:25:31;3.35;;;1.50;;
16906;SDS011;8570;52.380;4.654;2023-08-06T09:30:36;2.05;;;1.48;;
16906;SDS011;8570;52.380;4.654;2023-08-06T09:35:38;4.18;;;1.85;;
16906;SDS011;8570;52.380;4.654;2023-08-06T09:40:41;3.97;;;1.90;;
16906;SDS011;8570;52.380;4.654;2023-08-06T09:45:43;2.80;;;1.55;;
16906;SDS011;8570;52.380;4.654;2023-08-06T09:50:45;2.88;;;1.60;;
16906;SDS011;8570;52.380;4.654;2023-08-06T09:55:49;3.38;;;1.85;;
16906;SDS011;8570;52.380;4.654;2023-08-06T10:00:52;3.40;;;1.90;;
16906;SDS011;8570;52.380;4.654;2023-08-06T10:05:55;5.57;;;2.05;;
16906;SDS011;8570;52.380;4.654;2023-08-06T10:10:59;1.92;;;1.70;;
16906;SDS011;8570;52.380;4.654;2023-08-06T10:16:02;4.32;;;1.80;;
16906;SDS011;8570;52.380;4.654;2023-08-06T10:21:07;3.05;;;1.40;;
16906;SDS011;8570;52.380;4.654;2023-08-06T10:26:10;4.60;;;1.42;;
16906;SDS011;8570;52.380;4.654;2023-08-06T10:31:16;3.08;;;1.13;;
16906;SDS011;8570;52.380;4.654;2023-08-06T10:36:18;3.65;;;1.65;;
16906;SDS011;8570;52.380;4.654;2023-08-06T10:41:23;3.58;;;1.45;;
16906;SDS011;8570;52.380;4.654;2023-08-06T10:46:29;4.68;;;1.30;;
16906;SDS011;8570;52.380;4.654;2023-08-06T10:51:31;3.20;;;1.23;;
16906;SDS011;8570;52.380;4.654;2023-08-06T10:56:39;2.70;;;1.35;;
16906;SDS011;8570;52.380;4.654;2023-08-06T11:01:42;5.60;;;1.30;;
16906;SDS011;8570;52.380;4.654;2023-08-06T11:06:43;1.83;;;1.42;;
16906;SDS011;8570;52.380;4.654;2023-08-06T11:11:54;3.10;;;1.10;;
16906;SDS011;8570;52.380;4.654;2023-08-06T11:16:56;5.03;;;1.40;;
16906;SDS011;8570;52.380;4.654;2023-08-06T11:21:58;4.57;;;1.60;;
16906;SDS011;8570;52.380;4.654;2023-08-06T11:27:05;5.95;;;1.60;;
16906;SDS011;8570;52.380;4.654;2023-08-06T11:32:12;4.15;;;2.05;;
16906;SDS011;8570;52.380;4.654;2023-08-06T11:37:14;3.55;;;1.52;;
16906;SDS011;8570;52.380;4.654;2023-08-06T11:42:18;3.72;;;2.03;;
16906;SDS011;8570;52.380;4.654;2023-08-06T11:47:20;7.20;;;1.48;;
16906;SDS011;8570;52.380;4.654;2023-08-06T11:52:22;6.18;;;1.88;;
16906;SDS011;8570;52.380;4.654;2023-08-06T11:57:27;5.07;;;1.63;;
16906;SDS011;8570;52.380;4.654;2023-08-06T12:02:32;4.25;;;1.60;;
16906;SDS011;8570;52.380;4.654;2023-08-06T12:07:37;1.60;;;1.50;;
16906;SDS011;8570;52.380;4.654;2023-08-06T12:12:41;2.42;;;1.50;;
16906;SDS011;8570;52.380;4.654;2023-08-06T12:17:44;2.05;;;1.17;;
16906;SDS011;8570;52.380;4.654;2023-08-06T12:22:46;3.92;;;1.58;;
16906;SDS011;8570;52.380;4.654;2023-08-06T12:27:49;4.10;;;1.35;;
16906;SDS011;8570;52.380;4.654;2023-08-06T12:32:51;1.80;;;1.23;;
16906;SDS011;8570;52.380;4.654;2023-08-06T12:37:53;1.92;;;1.23;;
16906;SDS011;8570;52.380;4.654;2023-08-06T12:42:58;4.63;;;1.50;;
16906;SDS011;8570;52.380;4.654;2023-08-06T12:48:00;1.58;;;0.98;;
16906;SDS011;8570;52.380;4.654;2023-08-06T12:53:02;4.05;;;1.42;;
16906;SDS011;8570;52.380;4.654;2023-08-06T12:58:06;1.98;;;1.10;;
16906;SDS011;8570;52.380;4.654;2023-08-06T13:03:08;3.60;;;1.48;;
16906;SDS011;8570;52.380;4.654;2023-08-06T13:08:10;2.22;;;1.20;;
16906;SDS011;8570;52.380;4.654;2023-08-06T13:13:13;4.50;;;1.42;;
16906;SDS011;8570;52.380;4.654;2023-08-06T13:18:15;3.03;;;1.40;;
16906;SDS011;8570;52.380;4.654;2023-08-06T13:23:17;2.72;;;1.10;;
16906;SDS011;8570;52.380;4.654;2023-08-06T13:28:21;5.68;;;1.80;;
16906;SDS011;8570;52.380;4.654;2023-08-06T13:33:23;6.07;;;1.48;;
16906;SDS011;8570;52.380;4.654;2023-08-06T13:38:26;16.50;;;2.72;;
16906;SDS011;8570;52.380;4.654;2023-08-06T13:43:29;8.68;;;2.33;;
16906;SDS011;8570;52.380;4.654;2023-08-06T13:48:31;15.88;;;2.70;;
16906;SDS011;8570;52.380;4.654;2023-08-06T13:53:38;11.15;;;2.08;;
16906;SDS011;8570;52.380;4.654;2023-08-06T13:58:42;8.35;;;1.60;;
16906;SDS011;8570;52.380;4.654;2023-08-06T14:03:44;11.88;;;1.88;;
16906;SDS011;8570;52.380;4.654;2023-08-06T14:08:45;11.75;;;1.77;;
16906;SDS011;8570;52.380;4.654;2023-08-06T14:13:49;9.50;;;1.80;;
16906;SDS011;8570;52.380;4.654;2023-08-06T14:18:51;6.63;;;1.40;;
16906;SDS011;8570;52.380;4.654;2023-08-06T14:23:53;4.18;;;1.38;;
16906;SDS011;8570;52.380;4.654;2023-08-06T14:28:56;10.77;;;1.60;;
16906;SDS011;8570;52.380;4.654;2023-08-06T14:33:58;8.65;;;2.13;;
16906;SDS011;8570;52.380;4.654;2023-08-06T14:39:00;10.65;;;2.33;;
16906;SDS011;8570;52.380;4.654;2023-08-06T14:44:03;8.98;;;2.10;;
16906;SDS011;8570;52.380;4.654;2023-08-06T14:49:07;6.57;;;1.60;;
16906;SDS011;8570;52.380;4.654;2023-08-06T14:54:09;13.70;;;2.47;;
16906;SDS011;8570;52.380;4.654;2023-08-06T14:59:12;13.45;;;2.13;;
16906;SDS011;8570;52.380;4.654;2023-08-06T15:04:14;9.73;;;2.08;;
16906;SDS011;8570;52.380;4.654;2023-08-06T15:09:16;11.20;;;1.92;;
16906;SDS011;8570;52.380;4.654;2023-08-06T15:14:19;9.43;;;1.75;;
16906;SDS011;8570;52.380;4.654;2023-08-06T15:19:22;7.72;;;2.03;;
16906;SDS011;8570;52.380;4.654;2023-08-06T15:24:24;7.10;;;2.25;;
16906;SDS011;8570;52.380;4.654;2023-08-06T15:29:28;11.93;;;2.97;;
16906;SDS011;8570;52.380;4.654;2023-08-06T15:34:29;11.57;;;2.13;;
16906;SDS011;8570;52.380;4.654;2023-08-06T15:39:32;10.90;;;2.22;;
16906;SDS011;8570;52.380;4.654;2023-08-06T15:44:36;8.07;;;1.90;;
16906;SDS011;8570;52.380;4.654;2023-08-06T15:49:38;8.63;;;2.35;;
16906;SDS011;8570;52.380;4.654;2023-08-06T15:54:41;8.93;;;2.35;;
16906;SDS011;8570;52.380;4.654;2023-08-06T15:59:44;10.90;;;2.03;;
16906;SDS011;8570;52.380;4.654;2023-08-06T16:04:46;12.68;;;2.40;;
16906;SDS011;8570;52.380;4.654;2023-08-06T16:09:48;10.60;;;2.28;;
16906;SDS011;8570;52.380;4.654;2023-08-06T16:14:51;9.02;;;1.60;;
16906;SDS011;8570;52.380;4.654;2023-08-06T16:19:53;10.15;;;2.28;;
16906;SDS011;8570;52.380;4.654;2023-08-06T16:24:55;10.35;;;2.22;;
16906;SDS011;8570;52.380;4.654;2023-08-06T16:29:59;15.02;;;2.75;;
16906;SDS011;8570;52.380;4.654;2023-08-06T16:35:01;8.43;;;2.10;;
16906;SDS011;8570;52.380;4.654;2023-08-06T16:40:04;10.50;;;2.78;;
16906;SDS011;8570;52.380;4.654;2023-08-06T16:45:10;11.00;;;2.17;;
16906;SDS011;8570;52.380;4.654;2023-08-06T16:50:12;10.90;;;2.28;;
16906;SDS011;8570;52.380;4.654;2023-08-06T16:55:15;12.70;;;2.70;;
16906;SDS011;8570;52.380;4.654;2023-08-06T17:00:20;10.18;;;2.45;;
16906;SDS011;8570;52.380;4.654;2023-08-06T17:05:22;13.48;;;2.92;;
16906;SDS011;8570;52.380;4.654;2023-08-06T17:10:24;13.30;;;2.55;;
16906;SDS011;8570;52.380;4.654;2023-08-06T17:15:27;6.15;;;1.90;;
16906;SDS011;8570;52.380;4.654;2023-08-06T17:20:29;13.27;;;2.88;;
16906;SDS011;8570;52.380;4.654;2023-08-06T17:25:32;11.35;;;2.25;;
16906;SDS011;8570;52.380;4.654;2023-08-06T17:30:38;7.43;;;2.35;;
16906;SDS011;8570;52.380;4.654;2023-08-06T17:35:40;8.45;;;1.92;;
16906;SDS011;8570;52.380;4.654;2023-08-06T17:40:44;8.60;;;2.45;;
16906;SDS011;8570;52.380;4.654;2023-08-06T17:45:47;9.07;;;1.95;;
16906;SDS011;8570;52.380;4.654;2023-08-06T17:50:49;7.05;;;2.13;;
16906;SDS011;8570;52.380;4.654;2023-08-06T17:55:50;10.07;;;2.25;;
16906;SDS011;8570;52.380;4.654;2023-08-06T18:00:54;14.18;;;2.47;;
16906;SDS011;8570;52.380;4.654;2023-08-06T18:05:56;10.25;;;2.00;;
16906;SDS011;8570;52.380;4.654;2023-08-06T18:10:58;9.13;;;2.25;;
16906;SDS011;8570;52.380;4.654;2023-08-06T18:16:02;11.20;;;2.47;;
16906;SDS011;8570;52.380;4.654;2023-08-06T18:21:04;15.95;;;2.75;;
16906;SDS011;8570;52.380;4.654;2023-08-06T18:26:06;14.15;;;2.80;;
16906;SDS011;8570;52.380;4.654;2023-08-06T18:31:09;11.98;;;2.13;;
16906;SDS011;8570;52.380;4.654;2023-08-06T18:36:11;10.73;;;2.08;;
16906;SDS011;8570;52.380;4.654;2023-08-06T18:41:13;18.35;;;3.55;;
16906;SDS011;8570;52.380;4.654;2023-08-06T18:46:16;17.20;;;2.22;;
16906;SDS011;8570;52.380;4.654;2023-08-06T18:51:19;15.52;;;2.50;;
16906;SDS011;8570;52.380;4.654;2023-08-06T18:56:21;11.90;;;2.38;;
16906;SDS011;8570;52.380;4.654;2023-08-06T19:01:24;19.48;;;3.08;;
16906;SDS011;8570;52.380;4.654;2023-08-06T19:06:26;12.40;;;2.88;;
16906;SDS011;8570;52.380;4.654;2023-08-06T19:11:29;16.27;;;2.70;;
16906;SDS011;8570;52.380;4.654;2023-08-06T19:16:32;13.10;;;2.42;;
16906;SDS011;8570;52.380;4.654;2023-08-06T19:21:34;12.48;;;2.60;;
16906;SDS011;8570;52.380;4.654;2023-08-06T19:26:37;9.82;;;1.88;;
16906;SDS011;8570;52.380;4.654;2023-08-06T19:31:40;8.82;;;2.30;;
16906;SDS011;8570;52.380;4.654;2023-08-06T19:36:42;11.27;;;2.17;;
16906;SDS011;8570;52.380;4.654;2023-08-06T19:41:44;13.70;;;2.40;;
16906;SDS011;8570;52.380;4.654;2023-08-06T19:46:47;13.25;;;2.63;;
16906;SDS011;8570;52.380;4.654;2023-08-06T19:51:49;7.57;;;1.88;;
16906;SDS011;8570;52.380;4.654;2023-08-06T19:56:51;12.40;;;2.85;;
16906;SDS011;8570;52.380;4.654;2023-08-06T20:01:54;16.05;;;2.38;;
16906;SDS011;8570;52.380;4.654;2023-08-06T20:06:56;12.35;;;2.13;;
16906;SDS011;8570;52.380;4.654;2023-08-06T20:11:58;11.35;;;2.20;;
16906;SDS011;8570;52.380;4.654;2023-08-06T20:17:02;8.23;;;2.42;;
16906;SDS011;8570;52.380;4.654;2023-08-06T20:22:05;6.45;;;1.90;;
16906;SDS011;8570;52.380;4.654;2023-08-06T20:27:07;15.57;;;2.67;;
16906;SDS011;8570;52.380;4.654;2023-08-06T20:32:10;15.48;;;2.35;;
16906;SDS011;8570;52.380;4.654;2023-08-06T20:37:12;13.70;;;2.78;;
16906;SDS011;8570;52.380;4.654;2023-08-06T20:42:14;15.45;;;2.45;;
16906;SDS011;8570;52.380;4.654;2023-08-06T20:47:18;12.35;;;2.58;;
16906;SDS011;8570;52.380;4.654;2023-08-06T20:52:20;15.02;;;2.53;;
16906;SDS011;8570;52.380;4.654;2023-08-06T20:57:22;10.02;;;2.17;;
16906;SDS011;8570;52.380;4.654;2023-08-06T21:02:25;9.02;;;2.08;;
16906;SDS011;8570;52.380;4.654;2023-08-06T21:07:27;12.00;;;2.22;;
16906;SDS011;8570;52.380;4.654;2023-08-06T21:12:29;17.77;;;2.78;;
16906;SDS011;8570;52.380;4.654;2023-08-06T21:17:32;13.82;;;2.85;;
16906;SDS011;8570;52.380;4.654;2023-08-06T21:22:34;7.70;;;2.08;;
16906;SDS011;8570;52.380;4.654;2023-08-06T21:27:36;7.38;;;1.70;;
16906;SDS011;8570;52.380;4.654;2023-08-06T21:32:40;12.60;;;2.42;;
16906;SDS011;8570;52.380;4.654;2023-08-06T21:37:42;10.07;;;2.33;;
16906;SDS011;8570;52.380;4.654;2023-08-06T21:42:44;14.13;;;2.05;;
16906;SDS011;8570;52.380;4.654;2023-08-06T21:47:47;12.55;;;2.80;;
16906;SDS011;8570;52.380;4.654;2023-08-06T21:52:49;16.20;;;2.78;;
16906;SDS011;8570;52.380;4.654;2023-08-06T21:57:51;10.65;;;2.55;;
16906;SDS011;8570;52.380;4.654;2023-08-06T22:02:54;13.38;;;2.63;;
16906;SDS011;8570;52.380;4.654;2023-08-06T22:07:56;9.73;;;2.30;;
16906;SDS011;8570;52.380;4.654;2023-08-06T22:12:58;11.05;;;2.88;;
16906;SDS011;8570;52.380;4.654;2023-08-06T22:18:01;8.05;;;2.10;;
16906;SDS011;8570;52.380;4.654;2023-08-06T22:23:04;13.20;;;2.33;;
16906;SDS011;8570;52.380;4.654;2023-08-06T22:28:05;10.75;;;2.10;;
16906;SDS011;8570;52.380;4.654;2023-08-06T22:33:10;11.32;;;2.65;;
16906;SDS011;8570;52.380;4.654;2023-08-06T22:38:11;10.05;;;2.63;;
16906;SDS011;8570;52.380;4.654;2023-08-06T22:43:13;15.77;;;3.35;;
16906;SDS011;8570;52.380;4.654;2023-08-06T22:48:17;13.85;;;3.10;;
16906;SDS011;8570;52.380;4.654;2023-08-06T22:53:19;18.90;;;3.22;;
16906;SDS011;8570;52.380;4.654;2023-08-06T22:58:21;14.90;;;3.30;;
16906;SDS011;8570;52.380;4.654;2023-08-06T23:03:24;8.48;;;2.92;;
16906;SDS011;8570;52.380;4.654;2023-08-06T23:08:26;12.90;;;3.10;;
16906;SDS011;8570;52.380;4.654;2023-08-06T23:13:28;14.15;;;3.20;;
16906;SDS011;8570;52.380;4.654;2023-08-06T23:18:31;12.68;;;3.22;;
16906;SDS011;8570;52.380;4.654;2023-08-06T23:23:33;13.77;;;3.38;;
16906;SDS011;8570;52.380;4.654;2023-08-06T23:28:35;14.80;;;3.40;;
16906;SDS011;8570;52.380;4.654;2023-08-06T23:33:38;19.23;;;3.63;;
16906;SDS011;8570;52.380;4.654;2023-08-06T23:38:40;11.32;;;2.90;;
16906;SDS011;8570;52.380;4.654;2023-08-06T23:43:42;15.23;;;2.85;;
16906;SDS011;8570;52.380;4.654;2023-08-06T23:48:46;17.00;;;3.42;;
16906;SDS011;8570;52.380;4.654;2023-08-06T23:53:48;12.90;;;2.58;;
16906;SDS011;8570;52.380;4.654;2023-08-06T23:58:50;13.73;;;2.58;;
